Time;durP1;ratioP1;P1;durP2;ratioP2;P2;SDS_P1;SDS_P2;PMS_P1;PMS_P2;Temp;Humidity;BMP_temperature;BMP_pressure;BME280_temperature;BME280_humidity;BME280_pressure;Samples;Min_cycle;Max_cycle;Signal;HPM_P1;HPM_P2
2024/01/26 00:00:40;;;;;;;8.70;4.75;;;;;;;17.45;54.05;102171.53;4996777;28;20130;-66
2024/01/26 00:03:05;;;;;;;8.30;4.75;;;;;;;17.49;54.46;102172.97;4978894;28;20180;-66
2024/01/26 00:05:30;;;;;;;9.55;4.88;;;;;;;17.49;53.91;102170.25;4995465;28;20050;-66
2024/01/26 00:07:56;;;;;;;10.90;4.70;;;;;;;17.48;54.79;102165.81;4995717;28;20044;-66
2024/01/26 00:10:21;;;;;;;10.05;5.00;;;;;;;17.50;54.37;102161.16;4978841;28;20125;-66
2024/01/26 00:12:47;;;;;;;7.43;4.60;;;;;;;17.50;54.03;102153.00;4979293;28;20116;-66
2024/01/26 00:15:13;;;;;;;13.07;4.80;;;;;;;17.50;54.39;102152.16;4995431;28;20030;-66
2024/01/26 00:17:38;;;;;;;8.60;4.85;;;;;;;17.50;54.26;102150.31;4995338;28;20105;-66
2024/01/26 00:20:05;;;;;;;8.38;4.90;;;;;;;17.51;53.97;102154.72;4994886;28;20037;-66
2024/01/26 00:22:31;;;;;;;8.90;5.18;;;;;;;17.50;54.17;102155.72;4995021;28;20026;-66
2024/01/26 00:24:56;;;;;;;9.65;4.20;;;;;;;17.53;54.73;102162.72;4996283;28;20041;-66
2024/01/26 00:27:21;;;;;;;9.75;4.82;;;;;;;17.53;54.05;102169.00;4978655;28;20030;-66
2024/01/26 00:29:47;;;;;;;9.00;3.80;;;;;;;17.56;53.87;102163.28;4995112;28;20026;-67
2024/01/26 00:32:12;;;;;;;5.93;3.88;;;;;;;17.54;53.88;102165.28;4978701;28;20030;-66
2024/01/26 00:34:38;;;;;;;11.10;4.13;;;;;;;17.56;54.55;102163.28;4978735;28;20065;-66
2024/01/26 00:37:03;;;;;;;8.85;4.80;;;;;;;17.55;54.72;102164.31;4996491;28;20517;-66
2024/01/26 00:39:28;;;;;;;6.55;3.75;;;;;;;17.52;54.54;102156.44;4994744;28;20030;-66
2024/01/26 00:41:54;;;;;;;9.35;4.20;;;;;;;17.50;53.94;102158.44;4978407;28;20413;-66
2024/01/26 00:44:19;;;;;;;7.20;3.65;;;;;;;17.51;54.03;102157.41;4993826;28;20390;-67
2024/01/26 00:46:44;;;;;;;7.32;4.25;;;;;;;17.51;54.74;102165.53;4994708;28;20389;-67
2024/01/26 00:49:09;;;;;;;7.43;3.53;;;;;;;17.53;54.13;102163.56;4978726;28;20584;-66
2024/01/26 00:51:35;;;;;;;7.43;4.28;;;;;;;17.51;54.39;102154.72;4994186;28;20030;-67
2024/01/26 00:54:00;;;;;;;6.68;3.80;;;;;;;17.52;54.24;102153.72;4994556;28;20026;-67
2024/01/26 00:56:25;;;;;;;6.70;3.40;;;;;;;17.50;54.77;102147.59;4978337;28;20018;-67
2024/01/26 00:58:52;;;;;;;7.78;3.58;;;;;;;17.52;54.40;102155.56;4978578;28;20026;-67
2024/01/26 01:01:17;;;;;;;3.80;3.15;;;;;;;17.51;54.13;102153.84;4996473;28;20113;-67
2024/01/26 01:03:42;;;;;;;6.13;3.85;;;;;;;17.49;54.66;102151.28;4978999;28;20065;-66
2024/01/26 01:06:08;;;;;;;5.18;3.20;;;;;;;17.49;53.99;102156.72;4994229;28;20031;-66
2024/01/26 01:08:34;;;;;;;5.45;2.85;;;;;;;17.49;54.78;102162.13;4995804;28;20077;-66
2024/01/26 01:10:59;;;;;;;4.03;2.75;;;;;;;17.51;54.73;102176.38;4994986;28;20042;-66
2024/01/26 01:13:25;;;;;;;7.68;3.65;;;;;;;17.52;54.73;102167.25;4993997;28;20030;-66
2024/01/26 01:15:51;;;;;;;6.63;2.97;;;;;;;17.55;54.00;102164.31;4994169;28;20030;-66
2024/01/26 01:18:17;;;;;;;4.65;3.25;;;;;;;17.57;54.84;102156.88;4994244;28;20024;-66
2024/01/26 01:20:43;;;;;;;5.38;3.20;;;;;;;17.58;54.50;102153.19;4995303;28;20383;-66
2024/01/26 01:23:08;;;;;;;3.83;2.95;;;;;;;17.59;54.09;102157.59;4977891;28;20026;-66
2024/01/26 01:25:33;;;;;;;3.88;2.85;;;;;;;17.59;54.39;102162.19;4995295;28;20030;-66
2024/01/26 01:27:59;;;;;;;5.43;3.45;;;;;;;17.60;54.21;102159.31;4995009;28;20120;-66
2024/01/26 01:30:24;;;;;;;7.65;4.32;;;;;;;17.58;54.15;102161.31;4993828;28;20080;-66
2024/01/26 01:32:49;;;;;;;5.03;3.20;;;;;;;17.57;54.01;102162.31;4993998;28;20034;-66
2024/01/26 01:35:15;;;;;;;6.25;3.95;;;;;;;17.56;54.43;102152.44;4977721;28;21948;-67
2024/01/26 01:37:40;;;;;;;4.68;3.72;;;;;;;17.57;54.23;102154.19;4994869;28;20038;-66
2024/01/26 01:40:07;;;;;;;5.93;3.28;;;;;;;17.59;55.17;102156.75;4995097;28;20054;-66
2024/01/26 01:42:32;;;;;;;4.80;3.13;;;;;;;17.58;53.78;102145.06;4993826;28;20027;-67
2024/01/26 01:44:58;;;;;;;4.28;3.42;;;;;;;17.55;53.95;102139.91;4995035;28;20037;-66
2024/01/26 01:47:24;;;;;;;4.70;2.85;;;;;;;17.57;54.32;102132.50;4977020;28;20037;-66
2024/01/26 01:49:49;;;;;;;3.88;3.03;;;;;;;17.61;54.85;102136.66;4994556;28;20041;-65
2024/01/26 01:52:16;;;;;;;4.53;2.58;;;;;;;17.59;53.74;102135.91;4977286;28;20026;-66
2024/01/26 01:54:42;;;;;;;5.10;3.17;;;;;;;17.61;54.15;102144.78;4977158;28;20037;-66
2024/01/26 01:57:11;;;;;;;6.95;2.50;;;;;;;17.62;54.48;102134.78;4976233;28;20105;-65
2024/01/26 01:59:37;;;;;;;3.58;2.65;;;;;;;17.62;54.47;102130.22;4993382;28;20478;-66
2024/01/26 02:02:03;;;;;;;5.82;3.95;;;;;;;17.61;53.82;102123.09;4994865;28;20057;-66
2024/01/26 02:04:28;;;;;;;4.95;2.83;;;;;;;17.63;53.73;102126.50;4992633;28;20057;-66
2024/01/26 02:06:58;;;;;;;4.63;3.25;;;;;;;17.63;54.53;102126.50;4976905;28;20540;-66
2024/01/26 02:09:24;;;;;;;6.63;3.08;;;;;;;17.59;54.06;102113.41;4976818;28;20038;-66
2024/01/26 02:11:50;;;;;;;4.28;2.83;;;;;;;17.58;54.50;102115.25;4994154;28;20397;-66
2024/01/26 02:14:15;;;;;;;4.53;3.03;;;;;;;17.58;54.30;102109.84;4993199;28;20038;-66
2024/01/26 02:17:09;;;;;;;5.20;3.08;;;;;;;17.53;54.04;102092.25;4992986;28;20117;-66
2024/01/26 02:19:34;;;;;;;4.53;3.17;;;;;;;17.52;54.48;102096.81;4993498;28;20034;-66
2024/01/26 02:21:59;;;;;;;4.53;3.92;;;;;;;17.52;53.55;102095.97;4994366;28;20038;-66
2024/01/26 02:24:25;;;;;;;4.88;3.17;;;;;;;17.49;54.31;102080.84;4976482;28;20042;-66
2024/01/26 02:26:52;;;;;;;4.43;2.60;;;;;;;17.48;54.71;102077.28;4993785;28;20066;-66
2024/01/26 02:29:17;;;;;;;3.83;2.60;;;;;;;17.49;54.37;102075.44;4992756;28;20109;-65
2024/01/26 02:31:42;;;;;;;4.45;2.72;;;;;;;17.49;54.40;102083.56;4993079;28;20126;-66
2024/01/26 02:34:11;;;;;;;7.07;3.45;;;;;;;17.45;54.62;102072.16;4993057;28;20081;-66
2024/01/26 02:36:36;;;;;;;3.95;2.95;;;;;;;17.41;54.17;102061.75;4991531;28;20490;-66
2024/01/26 02:39:02;;;;;;;5.38;3.10;;;;;;;17.40;54.39;102055.47;4992931;28;20045;-65
2024/01/26 02:41:29;;;;;;;4.65;2.83;;;;;;;17.40;54.53;102054.59;4976635;28;20049;-66
2024/01/26 02:43:55;;;;;;;8.00;3.10;;;;;;;17.39;54.29;102064.59;4993240;28;20088;-66
2024/01/26 02:46:20;;;;;;;5.10;3.85;;;;;;;17.41;54.97;102072.59;4993756;28;20109;-66
2024/01/26 02:48:46;;;;;;;5.20;3.63;;;;;;;17.40;54.21;102071.72;4993970;28;20494;-66
2024/01/26 02:51:11;;;;;;;6.22;3.13;;;;;;;17.41;53.89;102057.19;4995774;28;20490;-66
2024/01/26 02:53:40;;;;;;;3.70;2.70;;;;;;;17.42;54.12;102053.47;4994107;28;20038;-66
2024/01/26 02:56:09;;;;;;;4.70;3.38;;;;;;;17.38;54.35;102045.78;4994800;28;20088;-66
2024/01/26 02:58:34;;;;;;;4.65;2.90;;;;;;;17.42;53.71;102055.31;4994736;28;20081;-66
2024/01/26 03:01:01;;;;;;;3.17;2.50;;;;;;;17.40;54.46;102049.19;4994599;28;20038;-66
2024/01/26 03:03:26;;;;;;;3.80;3.08;;;;;;;17.39;54.44;102052.91;4993937;28;20038;-66
2024/01/26 03:05:51;;;;;;;4.85;3.08;;;;;;;17.37;54.05;102053.03;4976519;28;20030;-66
2024/01/26 03:08:17;;;;;;;8.88;2.75;;;;;;;17.37;53.93;102050.34;4978573;28;20054;-66
2024/01/26 03:10:42;;;;;;;2.80;2.35;;;;;;;17.36;54.16;102053.19;4996014;28;20049;-65
2024/01/26 03:13:07;;;;;;;4.38;2.75;;;;;;;17.35;53.98;102040.66;4979726;28;20034;-66
2024/01/26 03:15:33;;;;;;;5.18;2.55;;;;;;;17.33;54.65;102045.34;4996304;28;20401;-66
2024/01/26 03:17:58;;;;;;;3.55;2.30;;;;;;;17.29;53.87;102049.34;4997294;28;20054;-65
2024/01/26 03:20:23;;;;;;;2.58;1.75;;;;;;;17.30;53.81;102053.78;4996219;28;20034;-66
2024/01/26 03:22:49;;;;;;;3.05;1.85;;;;;;;17.32;53.68;102051.75;4995942;28;20462;-66
2024/01/26 03:25:15;;;;;;;4.53;2.30;;;;;;;17.33;53.84;102038.09;4997464;28;20427;-66
2024/01/26 03:27:40;;;;;;;4.88;1.88;;;;;;;17.32;54.21;102019.25;4997299;28;20442;-66
2024/01/26 03:30:06;;;;;;;2.50;1.83;;;;;;;17.33;53.65;102016.44;4995852;28;20117;-66
2024/01/26 03:32:32;;;;;;;4.20;1.77;;;;;;;17.33;54.69;102005.59;4995515;28;20038;-66
2024/01/26 03:34:57;;;;;;;3.63;1.90;;;;;;;17.34;53.77;102006.41;4995792;28;20058;-65
2024/01/26 03:37:22;;;;;;;5.40;2.00;;;;;;;17.34;54.05;101999.16;4997337;28;20034;-66
2024/01/26 03:39:48;;;;;;;4.45;1.67;;;;;;;17.30;54.13;101983.34;4995856;28;20453;-65
2024/01/26 03:42:13;;;;;;;2.28;1.33;;;;;;;17.35;53.66;101994.59;4997151;28;20505;-65
2024/01/26 03:44:40;;;;;;;2.50;1.42;;;;;;;17.37;54.09;101989.88;4995577;28;20089;-65
2024/01/26 03:47:06;;;;;;;2.05;1.50;;;;;;;17.36;54.48;101988.19;4996842;28;20118;-65
2024/01/26 03:49:31;;;;;;;3.70;1.77;;;;;;;17.34;53.96;101973.91;4979225;28;20120;-66
2024/01/26 03:51:56;;;;;;;1.98;1.30;;;;;;;17.39;53.65;101982.50;4979632;28;20034;-65
2024/01/26 03:54:22;;;;;;;3.05;1.20;;;;;;;17.40;53.28;101981.47;4995485;28;20490;-66
2024/01/26 03:56:47;;;;;;;3.63;1.58;;;;;;;17.39;53.88;101977.06;4978936;28;20520;-65
2024/01/26 03:59:13;;;;;;;2.72;1.13;;;;;;;17.37;53.63;101971.78;4995507;28;20486;-65
2024/01/26 04:01:38;;;;;;;2.92;1.27;;;;;;;17.38;53.74;101967.22;4994462;28;20030;-65
2024/01/26 04:04:03;;;;;;;7.57;1.48;;;;;;;17.39;53.72;101966.25;4995393;28;20034;-65
2024/01/26 04:06:29;;;;;;;3.45;1.30;;;;;;;17.40;54.09;101968.78;4994967;28;20057;-65
2024/01/26 04:08:55;;;;;;;2.10;1.67;;;;;;;17.40;54.20;101951.66;4994968;28;20030;-66
2024/01/26 04:11:20;;;;;;;2.92;1.67;;;;;;;17.41;53.85;101934.44;4995052;28;20035;-65
2024/01/26 04:13:46;;;;;;;2.28;1.67;;;;;;;17.37;53.83;101922.16;4996207;28;20030;-65
2024/01/26 04:16:11;;;;;;;3.35;1.98;;;;;;;17.37;54.39;101928.44;4996287;28;20027;-65
2024/01/26 04:18:37;;;;;;;6.18;2.05;;;;;;;17.36;54.02;101934.03;4993009;28;20615;-66
2024/01/26 04:21:02;;;;;;;3.78;1.92;;;;;;;17.37;54.29;101941.13;4995100;28;20030;-66
2024/01/26 04:23:28;;;;;;;3.50;1.80;;;;;;;17.33;53.67;101937.03;4994892;28;20128;-65
2024/01/26 04:25:53;;;;;;;5.45;1.75;;;;;;;17.36;54.01;101934.03;4978784;28;20058;-65
2024/01/26 04:28:18;;;;;;;3.47;1.83;;;;;;;17.37;53.94;101941.13;4980567;28;20517;-65
2024/01/26 04:30:44;;;;;;;3.22;1.73;;;;;;;17.36;53.82;101934.03;4975216;28;20035;-65
2024/01/26 04:33:09;;;;;;;2.17;1.63;;;;;;;17.35;53.53;101918.75;4976837;28;20384;-65
2024/01/26 04:35:35;;;;;;;7.28;1.92;;;;;;;17.39;53.25;101912.06;4975414;28;20031;-65
2024/01/26 04:38:01;;;;;;;7.55;1.75;;;;;;;17.39;53.14;101923.72;4975510;28;20038;-65
2024/01/26 04:40:26;;;;;;;2.47;1.83;;;;;;;17.37;53.78;101914.03;4976231;28;20078;-65
2024/01/26 04:42:54;;;;;;;3.58;1.88;;;;;;;17.34;53.55;101898.09;4960248;28;20027;-65
2024/01/26 04:45:19;;;;;;;5.43;1.80;;;;;;;17.28;53.04;101898.69;4972050;28;20034;-65
2024/01/26 04:47:45;;;;;;;2.83;1.42;;;;;;;17.29;52.95;101886.84;4968698;28;20041;-65
2024/01/26 04:50:10;;;;;;;3.47;1.60;;;;;;;17.27;53.50;101886.13;4974921;28;20556;-66
2024/01/26 04:52:36;;;;;;;2.60;1.98;;;;;;;17.27;53.52;101897.84;4975019;28;20089;-65
2024/01/26 04:55:02;;;;;;;3.15;1.80;;;;;;;17.25;53.67;101885.44;4974890;28;20034;-65
2024/01/26 04:57:27;;;;;;;5.85;1.95;;;;;;;17.23;54.07;101880.16;4976055;28;20034;-65
2024/01/26 04:59:53;;;;;;;2.80;1.70;;;;;;;17.20;53.97;101868.75;4990999;28;20062;-66
2024/01/26 05:02:19;;;;;;;5.20;1.98;;;;;;;17.21;53.45;101865.91;4990673;28;20398;-65
2024/01/26 05:04:44;;;;;;;4.28;1.85;;;;;;;17.22;54.16;101866.78;4974674;28;20049;-66
2024/01/26 05:07:09;;;;;;;4.05;2.10;;;;;;;17.20;53.70;101866.03;4975947;28;20039;-65
2024/01/26 05:09:34;;;;;;;4.53;1.80;;;;;;;17.22;53.50;101861.34;4974422;28;20049;-66
2024/01/26 05:12:00;;;;;;;9.05;2.40;;;;;;;17.23;52.96;101857.63;4958722;28;20035;-66
2024/01/26 05:14:25;;;;;;;5.25;2.05;;;;;;;17.21;53.33;101865.06;4971311;28;20034;-65
2024/01/26 05:16:51;;;;;;;5.55;1.95;;;;;;;17.22;52.87;101872.19;4990416;28;20443;-65
2024/01/26 05:19:16;;;;;;;2.97;1.73;;;;;;;17.15;53.12;101854.81;4990907;28;20026;-65
2024/01/26 05:21:42;;;;;;;2.60;1.52;;;;;;;17.17;53.00;101855.53;4977430;28;20110;-66
2024/01/26 05:24:07;;;;;;;3.28;2.03;;;;;;;17.18;52.94;101846.41;4976221;28;20057;-65
2024/01/26 05:26:32;;;;;;;3.58;2.00;;;;;;;17.20;53.48;101853.38;4994080;28;20093;-65
2024/01/26 05:28:58;;;;;;;2.00;1.55;;;;;;;17.21;53.00;101854.22;4994990;28;20038;-65
2024/01/26 05:31:23;;;;;;;3.45;1.90;;;;;;;17.23;53.64;101868.47;4994939;28;20051;-65
2024/01/26 05:33:49;;;;;;;4.15;2.15;;;;;;;17.24;53.12;101860.22;4994830;28;20405;-65
2024/01/26 05:36:14;;;;;;;4.28;2.20;;;;;;;17.26;52.78;101841.94;4993722;28;20494;-65
2024/01/26 05:38:39;;;;;;;3.42;2.33;;;;;;;17.29;52.94;101835.38;4993716;28;20100;-66
2024/01/26 05:41:05;;;;;;;3.72;2.40;;;;;;;17.28;53.54;101836.41;4977415;28;20030;-66
2024/01/26 05:43:30;;;;;;;2.28;1.65;;;;;;;17.29;53.38;101851.63;4994029;28;20034;-66
2024/01/26 05:45:55;;;;;;;2.85;1.85;;;;;;;17.27;52.87;101848.22;4977871;28;20038;-65
2024/01/26 05:48:20;;;;;;;3.58;2.10;;;;;;;17.29;53.06;101841.66;4994751;28;20062;-66
2024/01/26 05:50:47;;;;;;;5.20;1.85;;;;;;;17.31;53.30;101827.94;4994721;28;20034;-66
2024/01/26 05:53:13;;;;;;;2.95;1.90;;;;;;;17.29;53.32;101848.91;4993537;28;20074;-66
2024/01/26 05:55:38;;;;;;;3.20;2.05;;;;;;;17.30;53.54;101843.38;4994640;28;20483;-66
2024/01/26 05:58:03;;;;;;;3.60;1.42;;;;;;;17.29;53.00;101840.78;4993351;28;20036;-66
2024/01/26 06:00:29;;;;;;;2.47;1.65;;;;;;;17.30;53.33;101843.38;4995070;28;20023;-66
2024/01/26 06:02:54;;;;;;;4.38;1.77;;;;;;;17.29;52.94;101836.25;4993357;28;20406;-66
2024/01/26 06:05:20;;;;;;;3.58;1.90;;;;;;;17.31;53.84;101822.53;4993327;28;20499;-66
2024/01/26 06:07:45;;;;;;;2.42;1.70;;;;;;;17.34;53.07;101830.38;4977109;28;20411;-66
2024/01/26 06:10:10;;;;;;;3.42;2.05;;;;;;;17.37;53.44;101832.78;4992828;28;20043;-67
2024/01/26 06:12:40;;;;;;;3.58;1.98;;;;;;;17.35;52.76;101832.09;4992845;28;20081;-66
2024/01/26 06:15:08;;;;;;;3.33;2.42;;;;;;;17.33;53.00;101825.97;4981655;28;20050;-66
2024/01/26 06:17:35;;;;;;;5.28;2.40;;;;;;;17.28;52.83;101812.84;4973895;28;20077;-66
2024/01/26 06:20:03;;;;;;;4.85;1.95;;;;;;;17.23;52.84;101815.16;4955469;28;20058;-67
2024/01/26 06:22:28;;;;;;;4.45;2.03;;;;;;;17.23;53.57;101819.72;4992866;28;20446;-67
2024/01/26 06:24:54;;;;;;;3.88;2.00;;;;;;;17.20;53.30;101820.00;4976328;28;20058;-66
2024/01/26 06:27:20;;;;;;;2.85;2.10;;;;;;;17.16;53.35;101819.47;4975385;28;20030;-67
2024/01/26 06:29:46;;;;;;;6.90;2.45;;;;;;;17.16;53.24;101819.47;4974079;28;20042;-64
2024/01/26 06:32:12;;;;;;;4.55;2.50;;;;;;;17.11;54.22;101810.94;4973537;28;20570;-67
2024/01/26 06:34:40;;;;;;;20.15;2.55;;;;;;;17.12;53.16;101828.03;4975502;28;20018;-66
2024/01/26 06:37:05;;;;;;;2.70;1.67;;;;;;;17.12;53.92;101820.75;4974848;28;20030;-66
2024/01/26 06:39:33;;;;;;;3.80;2.33;;;;;;;17.13;53.95;101819.78;4974087;28;20022;-66
2024/01/26 06:42:00;;;;;;;5.47;2.17;;;;;;;17.12;53.54;101814.47;4974554;28;20019;-67
2024/01/26 06:44:26;;;;;;;3.17;2.17;;;;;;;17.06;54.18;101801.53;4977867;28;20019;-67
2024/01/26 06:46:54;;;;;;;4.18;2.80;;;;;;;17.06;53.91;101806.94;4962048;28;20478;-67
2024/01/26 06:49:19;;;;;;;2.78;1.90;;;;;;;17.02;53.96;101803.69;4979298;28;20030;-67
2024/01/26 06:51:44;;;;;;;3.95;2.65;;;;;;;17.00;54.05;101796.72;4961872;28;20027;-68
2024/01/26 06:54:09;;;;;;;4.88;1.85;;;;;;;16.96;53.73;101806.13;4993385;28;20027;-67
2024/01/26 06:56:35;;;;;;;7.80;2.78;;;;;;;16.90;53.66;101799.44;4977817;28;20027;-68
2024/01/26 06:59:01;;;;;;;7.22;2.88;;;;;;;16.89;54.08;101812.13;4978780;28;20027;-68
2024/01/26 07:01:27;;;;;;;4.60;2.55;;;;;;;16.86;54.52;101804.28;4962306;28;20500;-68
2024/01/26 07:03:52;;;;;;;3.83;2.72;;;;;;;16.85;54.71;101805.31;4977709;28;20026;-68
2024/01/26 07:06:17;;;;;;;6.85;2.38;;;;;;;16.83;54.91;101795.63;4977840;28;20034;-69
2024/01/26 07:08:43;;;;;;;9.80;2.95;;;;;;;16.83;54.83;101801.06;4978540;28;20022;-69
2024/01/26 07:11:08;;;;;;;6.63;3.38;;;;;;;16.81;55.00;101798.47;4979198;28;20117;-69
2024/01/26 07:13:34;;;;;;;5.30;2.83;;;;;;;16.80;54.65;101804.03;4978966;28;20521;-70
2024/01/26 07:15:59;;;;;;;8.35;2.33;;;;;;;16.78;55.06;101804.16;4977368;28;20475;-69
2024/01/26 07:18:24;;;;;;;6.18;2.47;;;;;;;16.76;55.43;101798.06;4977019;28;20026;-70
2024/01/26 07:20:50;;;;;;;5.32;2.88;;;;;;;16.76;55.06;101824.25;4978898;28;20026;-70
2024/01/26 07:23:15;;;;;;;9.30;2.92;;;;;;;16.76;54.91;101817.00;4976007;28;20034;-70
2024/01/26 07:25:41;;;;;;;4.20;2.55;;;;;;;16.77;55.87;101802.47;4978424;28;20089;-70
2024/01/26 07:28:09;;;;;;;6.25;2.75;;;;;;;16.78;55.16;101803.31;4977367;28;20074;-69
2024/01/26 07:30:34;;;;;;;5.45;2.50;;;;;;;16.79;54.90;101803.19;4977555;28;20031;-69
2024/01/26 07:33:00;;;;;;;5.20;2.88;;;;;;;16.80;55.09;101796.78;4983415;28;20045;-69
2024/01/26 07:35:25;;;;;;;5.07;2.42;;;;;;;16.79;55.82;101789.66;4980305;28;20039;-69
2024/01/26 07:37:50;;;;;;;4.30;2.90;;;;;;;16.80;54.86;101791.38;4980711;28;20037;-70
2024/01/26 07:40:16;;;;;;;5.22;1.90;;;;;;;16.79;55.54;101805.03;4980903;28;20023;-70
2024/01/26 07:42:41;;;;;;;4.70;2.53;;;;;;;16.78;55.60;101815.00;4981340;28;20115;-70
2024/01/26 07:45:08;;;;;;;5.25;2.53;;;;;;;16.82;56.21;101813.72;4997505;28;20030;-69
2024/01/26 07:47:36;;;;;;;5.40;3.05;;;;;;;16.87;56.10;101795.19;4999651;28;20101;-69
2024/01/26 07:50:04;;;;;;;3.67;2.13;;;;;;;16.84;56.15;101781.94;4998252;28;20101;-69
2024/01/26 07:52:30;;;;;;;4.22;3.10;;;;;;;16.91;55.85;101782.22;4998404;28;20034;-69
2024/01/26 07:54:55;;;;;;;4.43;2.42;;;;;;;16.93;55.67;101776.66;4980210;28;20111;-69
2024/01/26 07:57:21;;;;;;;4.72;2.60;;;;;;;16.96;55.79;101768.25;4995779;28;20524;-69
2024/01/26 07:59:48;;;;;;;3.30;2.15;;;;;;;16.98;55.74;101777.06;4996496;28;20490;-68
2024/01/26 08:02:13;;;;;;;3.40;2.05;;;;;;;16.97;55.81;101764.53;4995824;28;20078;-68
2024/01/26 08:04:38;;;;;;;4.32;2.60;;;;;;;17.01;55.66;101771.34;4996739;28;20402;-68
2024/01/26 08:07:04;;;;;;;7.03;2.15;;;;;;;17.05;56.15;101799.84;4997105;28;20449;-67
2024/01/26 08:09:29;;;;;;;2.50;1.77;;;;;;;17.07;55.83;101814.06;4995299;28;20049;-68
2024/01/26 08:11:54;;;;;;;3.55;1.88;;;;;;;17.10;56.05;101808.38;4996316;28;20039;-67
2024/01/26 08:14:20;;;;;;;2.50;1.60;;;;;;;17.15;55.53;101801.50;4995220;28;20413;-67
2024/01/26 08:16:45;;;;;;;3.08;1.90;;;;;;;17.22;55.63;101793.66;4994811;28;20494;-67
2024/01/26 08:19:11;;;;;;;5.88;2.38;;;;;;;17.25;56.27;101806.91;4995888;28;20066;-66
2024/01/26 08:21:36;;;;;;;2.28;1.67;;;;;;;17.22;56.13;101783.69;4994881;28;20035;-67
2024/01/26 08:24:02;;;;;;;2.47;1.80;;;;;;;17.26;56.18;101776.09;4996759;28;20039;-67
2024/01/26 08:26:28;;;;;;;3.47;2.03;;;;;;;17.30;55.56;101794.63;4996280;28;20042;-67
2024/01/26 08:28:54;;;;;;;2.53;1.90;;;;;;;17.33;55.89;101809.72;4996748;28;20436;-66
2024/01/26 08:31:19;;;;;;;3.15;1.63;;;;;;;17.35;55.80;101803.16;4979198;28;20117;-66
2024/01/26 08:33:45;;;;;;;1.38;1.27;;;;;;;17.39;55.93;101803.72;4995497;28;20062;-66
2024/01/26 08:36:10;;;;;;;1.60;1.35;;;;;;;17.40;55.52;101816.22;4995877;28;20146;-66
2024/01/26 08:38:35;;;;;;;6.05;1.70;;;;;;;17.42;55.56;101825.91;4993915;28;20406;-66
2024/01/26 08:41:05;;;;;;;4.72;1.30;;;;;;;17.45;56.05;101820.19;4995068;28;20034;-66
2024/01/26 08:43:30;;;;;;;3.05;1.38;;;;;;;17.50;56.10;101827.91;4993648;28;20398;-66
2024/01/26 08:45:56;;;;;;;2.72;1.35;;;;;;;17.50;56.23;101824.34;4994866;28;20031;-66
2024/01/26 08:48:21;;;;;;;4.55;1.23;;;;;;;17.51;56.09;101848.56;4996268;28;20085;-66
2024/01/26 08:50:47;;;;;;;3.58;1.38;;;;;;;17.49;55.49;101831.59;4996008;28;20034;-66
2024/01/26 08:53:12;;;;;;;3.38;1.33;;;;;;;17.51;56.21;101848.56;4996503;28;20089;-66
2024/01/26 08:55:39;;;;;;;2.53;1.73;;;;;;;17.50;56.22;101844.16;4978410;28;20039;-67
2024/01/26 08:58:05;;;;;;;2.10;1.30;;;;;;;17.52;56.09;101842.16;4994918;28;20054;-67
2024/01/26 09:00:31;;;;;;;2.75;1.55;;;;;;;17.55;55.94;101855.44;4996136;28;20037;-66
2024/01/26 09:02:56;;;;;;;4.38;1.95;;;;;;;17.52;56.02;101846.69;4994806;28;20022;-67
2024/01/26 09:05:21;;;;;;;3.28;1.98;;;;;;;17.54;55.71;101832.03;4995717;28;20038;-67
2024/01/26 09:07:47;;;;;;;4.90;2.50;;;;;;;17.59;56.20;101842.44;4994880;28;20038;-67
2024/01/26 09:10:12;;;;;;;2.53;1.60;;;;;;;17.60;56.41;101838.72;4994842;28;20050;-67
2024/01/26 09:12:38;;;;;;;1.52;1.33;;;;;;;17.59;56.67;101837.03;4978654;28;20034;-68
2024/01/26 09:15:05;;;;;;;3.63;1.70;;;;;;;17.61;56.49;101841.28;4995947;28;20425;-68
2024/01/26 09:17:30;;;;;;;3.10;1.80;;;;;;;17.61;56.60;101830.44;4995177;28;20043;-68
2024/01/26 09:19:56;;;;;;;2.58;1.80;;;;;;;17.63;56.71;101839.28;4994688;28;20027;-69
2024/01/26 09:22:21;;;;;;;3.30;2.10;;;;;;;17.59;56.19;101837.84;4977661;28;20034;-69
2024/01/26 09:24:47;;;;;;;5.20;1.95;;;;;;;17.59;56.03;101835.13;4993440;28;20406;-69
2024/01/26 09:27:12;;;;;;;2.20;1.52;;;;;;;17.60;56.53;101842.28;4994482;28;20042;-69
2024/01/26 09:29:37;;;;;;;3.85;1.83;;;;;;;17.59;56.30;101845.97;4994784;28;20506;-69
2024/01/26 09:32:04;;;;;;;2.55;1.77;;;;;;;17.58;56.16;101843.44;4976763;28;20042;-70
2024/01/26 09:34:30;;;;;;;2.83;1.73;;;;;;;17.58;56.44;101847.00;4993325;28;20038;-70
2024/01/26 09:36:55;;;;;;;2.47;1.55;;;;;;;17.58;56.25;101851.56;4994562;28;20038;-70
2024/01/26 09:39:21;;;;;;;3.67;1.27;;;;;;;17.57;56.84;101861.53;4993350;28;20405;-69
2024/01/26 09:41:47;;;;;;;2.00;1.75;;;;;;;17.60;56.39;101865.81;4995176;28;20035;-69
2024/01/26 09:44:12;;;;;;;2.13;1.52;;;;;;;17.56;56.94;101856.28;4993540;28;20422;-69
2024/01/26 09:46:38;;;;;;;2.70;1.55;;;;;;;17.58;57.13;101857.84;4977830;28;20419;-69
2024/01/26 09:49:07;;;;;;;2.67;1.77;;;;;;;17.63;57.36;101866.38;4977317;28;20044;-69
2024/01/26 09:51:32;;;;;;;1.80;1.48;;;;;;;17.66;57.34;101866.06;4993265;28;20168;-69
2024/01/26 09:53:59;;;;;;;2.15;1.38;;;;;;;17.69;56.77;101873.91;4994191;28;20101;-68
2024/01/26 09:56:26;;;;;;;1.80;1.05;;;;;;;17.79;56.51;101871.13;4992917;28;20041;-67
2024/01/26 09:58:52;;;;;;;3.35;1.83;;;;;;;17.81;56.83;101872.69;4976851;28;20426;-67
2024/01/26 10:01:20;;;;;;;1.50;1.35;;;;;;;17.90;56.64;101868.22;4992951;28;20030;-67
2024/01/26 10:03:46;;;;;;;1.23;1.05;;;;;;;17.96;56.21;101884.75;4992761;28;20061;-67
2024/01/26 10:06:11;;;;;;;1.88;1.63;;;;;;;18.01;56.49;101874.28;4992608;28;20072;-67
2024/01/26 10:08:38;;;;;;;2.65;1.20;;;;;;;18.02;56.40;101876.00;4992427;28;20038;-67
2024/01/26 10:11:03;;;;;;;4.78;1.30;;;;;;;18.07;55.90;101885.53;4992339;28;20030;-67
2024/01/26 10:13:29;;;;;;;3.28;1.27;;;;;;;18.08;56.15;101900.81;4993877;28;20041;-67
2024/01/26 10:16:06;;;;;;;2.38;1.45;;;;;;;18.04;56.77;101933.66;4992358;28;20542;-69
2024/01/26 10:18:43;;;;;;;2.05;0.90;;;;;;;17.95;56.50;101964.38;4992139;28;20113;-63
2024/01/26 10:21:09;;;;;;;3.92;0.95;;;;;;;17.80;56.76;101965.88;4992758;28;20030;-68
2024/01/26 10:23:35;;;;;;;1.23;0.50;;;;;;;17.65;56.76;101989.00;4992560;28;20030;-69
2024/01/26 10:26:00;;;;;;;1.63;0.70;;;;;;;17.56;56.39;101984.47;4976374;28;20045;-70
2024/01/26 10:28:25;;;;;;;4.80;0.52;;;;;;;17.49;56.66;101994.16;4992596;28;20057;-70
2024/01/26 10:30:51;;;;;;;4.28;0.45;;;;;;;17.35;56.20;102008.13;4976170;28;20031;-70
2024/01/26 10:33:16;;;;;;;3.42;0.57;;;;;;;17.25;56.64;102021.69;4993788;28;20030;-69
2024/01/26 10:35:48;;;;;;;2.40;0.70;;;;;;;17.18;56.72;102030.53;4993726;28;20034;-70
2024/01/26 10:38:14;;;;;;;1.95;0.60;;;;;;;17.15;56.36;102023.53;4993740;28;20030;-70
2024/01/26 10:40:45;;;;;;;4.18;0.80;;;;;;;17.15;56.63;102028.09;4992262;28;20453;-69
2024/01/26 10:43:11;;;;;;;4.00;1.08;;;;;;;17.15;56.35;102028.09;4992149;28;20118;-69
2024/01/26 10:45:37;;;;;;;5.20;1.15;;;;;;;17.15;56.55;102034.38;4975833;28;20541;-69
2024/01/26 10:48:04;;;;;;;4.43;1.15;;;;;;;17.20;56.20;102028.53;4992297;28;20039;-68
2024/01/26 10:50:29;;;;;;;5.88;1.45;;;;;;;17.21;55.72;102032.94;4992229;28;20033;-68
2024/01/26 10:52:55;;;;;;;5.53;1.55;;;;;;;17.27;55.80;102049.50;4992052;28;20034;-68
2024/01/26 10:55:21;;;;;;;4.80;1.67;;;;;;;17.35;56.04;102051.47;4993579;28;20035;-68
2024/01/26 10:57:46;;;;;;;9.73;2.17;;;;;;;17.67;55.46;102057.47;4992319;28;20035;-67
2024/01/26 11:00:13;;;;;;;14.00;1.20;;;;;;;17.85;54.45;102063.84;4975998;28;20062;-67
2024/01/26 11:02:39;;;;;;;3.35;0.40;;;;;;;17.93;54.77;102069.41;4993445;28;20506;-67
2024/01/26 11:05:10;;;;;;;8.88;0.93;;;;;;;18.03;54.66;102082.94;4975979;28;20034;-67
2024/01/26 11:07:36;;;;;;;6.00;0.43;;;;;;;18.18;53.69;102077.88;4992060;28;20042;-67
2024/01/26 11:10:04;;;;;;;3.40;0.70;;;;;;;18.71;52.65;102091.69;4975502;28;20521;-67
2024/01/26 11:12:31;;;;;;;2.97;0.50;;;;;;;19.13;52.27;102096.44;4975946;28;20415;-67
2024/01/26 11:15:06;;;;;;;1.48;0.55;;;;;;;19.59;51.98;102108.13;4975911;28;20456;-67
2024/01/26 11:17:53;;;;;;;4.63;0.50;;;;;;;20.22;50.58;102109.63;4993097;28;20030;-67